sensor_id;sensor_type;location;lat;lon;timestamp;pressure;altitude;pressure_sealevel;temperature;humidity
61769;BME280;47669;48.712;9.016;2023-02-05T00:01:13;98490.53;;;0.10;nan
61769;BME280;47669;48.712;9.016;2023-02-05T00:03:39;98497.16;;;0.14;nan
61769;BME280;47669;48.712;9.016;2023-02-05T00:06:04;98503.91;;;0.17;nan
61769;BME280;47669;48.712;9.016;2023-02-05T00:08:30;98492.63;;;0.18;nan
61769;BME280;47669;48.712;9.016;2023-02-05T00:10:55;98504.00;;;0.28;nan
61769;BME280;47669;48.712;9.016;2023-02-05T00:13:21;98498.81;;;0.15;nan
61769;BME280;47669;48.712;9.016;2023-02-05T00:15:46;98498.50;;;0.07;nan
61769;BME280;47669;48.712;9.016;2023-02-05T00:18:12;98497.69;;;0.07;nan
61769;BME280;47669;48.712;9.016;2023-02-05T00:20:37;98487.84;;;0.12;nan
61769;BME280;47669;48.712;9.016;2023-02-05T00:23:03;98480.38;;;0.07;nan
61769;BME280;47669;48.712;9.016;2023-02-05T00:25:28;98484.94;;;0.16;nan
61769;BME280;47669;48.712;9.016;2023-02-05T00:27:54;98485.25;;;0.12;nan
61769;BME280;47669;48.712;9.016;2023-02-05T00:30:20;98489.16;;;0.17;nan
61769;BME280;47669;48.712;9.016;2023-02-05T00:32:45;98479.66;;;0.18;nan
61769;BME280;47669;48.712;9.016;2023-02-05T00:35:10;98474.78;;;0.13;nan
61769;BME280;47669;48.712;9.016;2023-02-05T00:37:35;98484.22;;;0.14;nan
61769;BME280;47669;48.712;9.016;2023-02-05T00:40:01;98475.50;;;0.15;nan
61769;BME280;47669;48.712;9.016;2023-02-05T00:42:26;98485.75;;;0.17;nan
61769;BME280;47669;48.712;9.016;2023-02-05T00:44:51;98486.81;;;0.14;nan
61769;BME280;47669;48.712;9.016;2023-02-05T00:47:17;98482.44;;;0.28;nan
61769;BME280;47669;48.712;9.016;2023-02-05T00:49:42;98486.91;;;0.13;nan
61769;BME280;47669;48.712;9.016;2023-02-05T00:52:07;98484.53;;;0.10;nan
61769;BME280;47669;48.712;9.016;2023-02-05T00:54:32;98486.19;;;0.11;nan
61769;BME280;47669;48.712;9.016;2023-02-05T00:56:58;98479.84;;;0.15;nan
61769;BME280;47669;48.712;9.016;2023-02-05T00:59:23;98485.06;;;0.02;nan
61769;BME280;47669;48.712;9.016;2023-02-05T01:01:48;98483.31;;;0.03;nan
61769;BME280;47669;48.712;9.016;2023-02-05T01:04:14;98476.44;;;0.02;nan
61769;BME280;47669;48.712;9.016;2023-02-05T01:06:39;98474.38;;;0.07;nan
61769;BME280;47669;48.712;9.016;2023-02-05T01:09:04;98482.88;;;-0.04;nan
61769;BME280;47669;48.712;9.016;2023-02-05T01:11:30;98478.53;;;-0.04;nan
61769;BME280;47669;48.712;9.016;2023-02-05T01:13:55;98477.28;;;-0.11;nan
61769;BME280;47669;48.712;9.016;2023-02-05T01:16:20;98474.59;;;-0.22;nan
61769;BME280;47669;48.712;9.016;2023-02-05T01:18:46;98477.09;;;-0.21;nan
61769;BME280;47669;48.712;9.016;2023-02-05T01:21:11;98473.78;;;-0.23;nan
61769;BME280;47669;48.712;9.016;2023-02-05T01:23:36;98472.13;;;-0.36;nan
61769;BME280;47669;48.712;9.016;2023-02-05T01:26:02;98465.19;;;-0.23;nan
61769;BME280;47669;48.712;9.016;2023-02-05T01:28:27;98461.66;;;-0.22;nan
61769;BME280;47669;48.712;9.016;2023-02-05T01:30:53;98460.63;;;-0.32;nan
61769;BME280;47669;48.712;9.016;2023-02-05T01:33:18;98460.09;;;-0.37;nan
61769;BME280;47669;48.712;9.016;2023-02-05T01:35:43;98456.47;;;-0.35;nan
61769;BME280;47669;48.712;9.016;2023-02-05T01:38:12;98465.47;;;-0.28;nan
61769;BME280;47669;48.712;9.016;2023-02-05T01:40:38;98457.00;;;-0.17;nan
61769;BME280;47669;48.712;9.016;2023-02-05T01:43:09;98454.00;;;-0.36;nan
61769;BME280;47669;48.712;9.016;2023-02-05T01:48:07;98450.75;;;-0.53;nan
61769;BME280;47669;48.712;9.016;2023-02-05T01:50:42;98446.44;;;-0.52;nan
61769;BME280;47669;48.712;9.016;2023-02-05T01:53:12;98440.63;;;-0.56;nan
61769;BME280;47669;48.712;9.016;2023-02-05T01:55:43;98436.78;;;-0.63;nan
61769;BME280;47669;48.712;9.016;2023-02-05T01:58:10;98437.22;;;-0.44;nan
61769;BME280;47669;48.712;9.016;2023-02-05T02:00:35;98431.50;;;-0.49;nan
61769;BME280;47669;48.712;9.016;2023-02-05T02:03:01;98417.03;;;-0.64;nan
61769;BME280;47669;48.712;9.016;2023-02-05T02:05:26;98423.84;;;-0.63;nan
61769;BME280;47669;48.712;9.016;2023-02-05T02:07:51;98415.38;;;-0.52;nan
61769;BME280;47669;48.712;9.016;2023-02-05T02:10:17;98412.69;;;-0.64;nan
61769;BME280;47669;48.712;9.016;2023-02-05T02:12:45;98421.47;;;-0.53;nan
61769;BME280;47669;48.712;9.016;2023-02-05T02:15:15;98410.59;;;-0.46;nan
61769;BME280;47669;48.712;9.016;2023-02-05T02:17:44;98412.88;;;-0.54;nan
61769;BME280;47669;48.712;9.016;2023-02-05T02:20:13;98406.59;;;-0.37;nan
61769;BME280;47669;48.712;9.016;2023-02-05T02:22:56;98403.78;;;-0.34;nan
61769;BME280;47669;48.712;9.016;2023-02-05T02:28:28;98398.19;;;-0.41;nan
61769;BME280;47669;48.712;9.016;2023-02-05T02:31:27;98400.97;;;-0.31;nan
61769;BME280;47669;48.712;9.016;2023-02-05T02:34:05;98401.47;;;-0.26;nan
61769;BME280;47669;48.712;9.016;2023-02-05T02:36:41;98403.16;;;-0.25;nan
61769;BME280;47669;48.712;9.016;2023-02-05T02:39:22;98398.16;;;-0.15;nan
61769;BME280;47669;48.712;9.016;2023-02-05T02:41:55;98390.81;;;-0.21;nan
61769;BME280;47669;48.712;9.016;2023-02-05T02:44:27;98390.94;;;-0.23;nan
61769;BME280;47669;48.712;9.016;2023-02-05T02:46:59;98393.09;;;-0.16;nan
61769;BME280;47669;48.712;9.016;2023-02-05T02:49:31;98395.00;;;0.06;nan
61769;BME280;47669;48.712;9.016;2023-02-05T02:52:01;98397.09;;;0.01;nan
61769;BME280;47669;48.712;9.016;2023-02-05T02:54:28;98393.78;;;-0.02;nan
61769;BME280;47669;48.712;9.016;2023-02-05T02:56:55;98367.38;;;-0.20;nan
61769;BME280;47669;48.712;9.016;2023-02-05T02:59:28;98371.56;;;-0.17;nan
61769;BME280;47669;48.712;9.016;2023-02-05T03:01:57;98377.16;;;-0.23;nan
61769;BME280;47669;48.712;9.016;2023-02-05T03:04:36;98377.25;;;-0.25;nan
61769;BME280;47669;48.712;9.016;2023-02-05T03:07:30;98373.72;;;-0.24;nan
61769;BME280;47669;48.712;9.016;2023-02-05T03:10:13;98376.53;;;-0.27;nan
61769;BME280;47669;48.712;9.016;2023-02-05T03:12:41;98379.94;;;-0.26;nan
61769;BME280;47669;48.712;9.016;2023-02-05T03:15:07;98379.94;;;-0.26;nan
61769;BME280;47669;48.712;9.016;2023-02-05T03:17:33;98375.28;;;-0.21;nan
61769;BME280;47669;48.712;9.016;2023-02-05T03:20:12;98382.94;;;-0.20;nan
61769;BME280;47669;48.712;9.016;2023-02-05T03:22:39;98378.78;;;-0.22;nan
61769;BME280;47669;48.712;9.016;2023-02-05T03:25:05;98371.84;;;-0.09;nan
61769;BME280;47669;48.712;9.016;2023-02-05T03:27:31;98368.69;;;0.12;nan
61769;BME280;47669;48.712;9.016;2023-02-05T03:29:57;98374.09;;;-0.04;nan
61769;BME280;47669;48.712;9.016;2023-02-05T03:32:35;98376.81;;;-0.06;nan
61769;BME280;47669;48.712;9.016;2023-02-05T03:38:10;98373.41;;;-0.19;nan
61769;BME280;47669;48.712;9.016;2023-02-05T03:40:54;98361.81;;;-0.26;nan
61769;BME280;47669;48.712;9.016;2023-02-05T03:43:54;98360.38;;;-0.30;nan
61769;BME280;47669;48.712;9.016;2023-02-05T03:46:43;98352.94;;;-0.48;nan
61769;BME280;47669;48.712;9.016;2023-02-05T03:52:06;98353.28;;;-0.52;nan
61769;BME280;47669;48.712;9.016;2023-02-05T03:54:40;98354.38;;;-0.56;nan
61769;BME280;47669;48.712;9.016;2023-02-05T03:57:19;98360.09;;;-0.64;nan
61769;BME280;47669;48.712;9.016;2023-02-05T03:59:47;98354.91;;;-0.77;nan
61769;BME280;47669;48.712;9.016;2023-02-05T04:02:14;98364.22;;;-0.74;nan
61769;BME280;47669;48.712;9.016;2023-02-05T04:04:39;98347.91;;;-0.62;nan
61769;BME280;47669;48.712;9.016;2023-02-05T04:07:05;98347.56;;;-0.96;nan
61769;BME280;47669;48.712;9.016;2023-02-05T04:09:30;98337.94;;;-0.94;nan
61769;BME280;47669;48.712;9.016;2023-02-05T04:11:55;98335.13;;;-1.16;nan
61769;BME280;47669;48.712;9.016;2023-02-05T04:14:20;98343.22;;;-1.08;nan
61769;BME280;47669;48.712;9.016;2023-02-05T04:16:45;98339.81;;;-1.09;nan
61769;BME280;47669;48.712;9.016;2023-02-05T04:19:11;98341.38;;;-0.93;nan
61769;BME280;47669;48.712;9.016;2023-02-05T04:21:36;98339.69;;;-1.20;nan
61769;BME280;47669;48.712;9.016;2023-02-05T04:24:01;98339.53;;;-1.31;nan
61769;BME280;47669;48.712;9.016;2023-02-05T04:26:27;98333.31;;;-1.42;nan
61769;BME280;47669;48.712;9.016;2023-02-05T04:28:52;98336.06;;;-1.17;nan
61769;BME280;47669;48.712;9.016;2023-02-05T04:31:17;98334.22;;;-1.43;nan
61769;BME280;47669;48.712;9.016;2023-02-05T04:33:42;98339.72;;;-1.34;nan
61769;BME280;47669;48.712;9.016;2023-02-05T04:36:09;98336.72;;;-1.41;nan
61769;BME280;47669;48.712;9.016;2023-02-05T04:38:34;98332.69;;;-1.45;nan
61769;BME280;47669;48.712;9.016;2023-02-05T04:41:00;98337.44;;;-1.39;nan
61769;BME280;47669;48.712;9.016;2023-02-05T04:43:25;98328.78;;;-1.25;nan
61769;BME280;47669;48.712;9.016;2023-02-05T04:45:51;98330.75;;;-1.42;nan
61769;BME280;47669;48.712;9.016;2023-02-05T04:48:16;98343.03;;;-1.45;nan
61769;BME280;47669;48.712;9.016;2023-02-05T04:50:42;98344.06;;;-1.48;nan
61769;BME280;47669;48.712;9.016;2023-02-05T04:53:07;98344.38;;;-1.40;nan
61769;BME280;47669;48.712;9.016;2023-02-05T04:55:32;98355.22;;;-1.34;nan
61769;BME280;47669;48.712;9.016;2023-02-05T04:57:58;98350.59;;;-1.29;nan
61769;BME280;47669;48.712;9.016;2023-02-05T05:00:24;98347.66;;;-1.10;nan
61769;BME280;47669;48.712;9.016;2023-02-05T05:02:49;98348.97;;;-1.17;nan
61769;BME280;47669;48.712;9.016;2023-02-05T05:05:15;98343.84;;;-1.05;nan
61769;BME280;47669;48.712;9.016;2023-02-05T05:07:40;98333.91;;;-1.11;nan
61769;BME280;47669;48.712;9.016;2023-02-05T05:10:06;98342.06;;;-1.04;nan
61769;BME280;47669;48.712;9.016;2023-02-05T05:12:33;98351.19;;;-0.98;nan
61769;BME280;47669;48.712;9.016;2023-02-05T05:14:59;98352.81;;;-1.10;nan
61769;BME280;47669;48.712;9.016;2023-02-05T05:17:24;98361.09;;;-1.05;nan
61769;BME280;47669;48.712;9.016;2023-02-05T05:19:49;98366.19;;;-0.91;nan
61769;BME280;47669;48.712;9.016;2023-02-05T05:22:14;98364.97;;;-0.85;nan
61769;BME280;47669;48.712;9.016;2023-02-05T05:24:40;98358.34;;;-0.89;nan
61769;BME280;47669;48.712;9.016;2023-02-05T05:27:05;98362.38;;;-0.85;nan
61769;BME280;47669;48.712;9.016;2023-02-05T05:29:30;98364.53;;;-0.92;nan
61769;BME280;47669;48.712;9.016;2023-02-05T05:31:55;98360.38;;;-0.94;nan
61769;BME280;47669;48.712;9.016;2023-02-05T05:34:21;98357.41;;;-0.75;nan
61769;BME280;47669;48.712;9.016;2023-02-05T05:36:46;98358.66;;;-0.55;nan
61769;BME280;47669;48.712;9.016;2023-02-05T05:39:12;98355.25;;;-0.82;nan
61769;BME280;47669;48.712;9.016;2023-02-05T05:41:57;98350.38;;;-0.73;nan
61769;BME280;47669;48.712;9.016;2023-02-05T05:44:41;98352.25;;;-0.75;nan
61769;BME280;47669;48.712;9.016;2023-02-05T05:47:06;98352.97;;;-0.73;nan
61769;BME280;47669;48.712;9.016;2023-02-05T05:49:32;98345.81;;;-0.70;nan
61769;BME280;47669;48.712;9.016;2023-02-05T05:51:57;98349.94;;;-0.80;nan
61769;BME280;47669;48.712;9.016;2023-02-05T05:54:22;98349.34;;;-0.84;nan
61769;BME280;47669;48.712;9.016;2023-02-05T05:56:47;98352.25;;;-0.75;nan
61769;BME280;47669;48.712;9.016;2023-02-05T05:59:14;98352.63;;;-0.69;nan
61769;BME280;47669;48.712;9.016;2023-02-05T06:01:40;98336.28;;;-0.56;nan
61769;BME280;47669;48.712;9.016;2023-02-05T06:04:05;98334.34;;;-0.66;nan
61769;BME280;47669;48.712;9.016;2023-02-05T06:06:31;98337.13;;;-0.69;nan
61769;BME280;47669;48.712;9.016;2023-02-05T06:08:56;98333.09;;;-0.73;nan
61769;BME280;47669;48.712;9.016;2023-02-05T06:11:21;98336.19;;;-0.68;nan
61769;BME280;47669;48.712;9.016;2023-02-05T06:13:47;98338.25;;;-0.60;nan
61769;BME280;47669;48.712;9.016;2023-02-05T06:16:12;98340.84;;;-0.60;nan
61769;BME280;47669;48.712;9.016;2023-02-05T06:18:37;98343.31;;;-0.46;nan
61769;BME280;47669;48.712;9.016;2023-02-05T06:21:03;98340.53;;;-0.43;nan
61769;BME280;47669;48.712;9.016;2023-02-05T06:23:30;98344.34;;;-0.35;nan
61769;BME280;47669;48.712;9.016;2023-02-05T06:25:56;98340.31;;;-0.40;nan
61769;BME280;47669;48.712;9.016;2023-02-05T06:28:21;98345.28;;;-0.36;nan
61769;BME280;47669;48.712;9.016;2023-02-05T06:30:47;98348.88;;;-0.39;nan
61769;BME280;47669;48.712;9.016;2023-02-05T06:33:12;98346.19;;;-0.37;nan
61769;BME280;47669;48.712;9.016;2023-02-05T06:35:38;98346.53;;;-0.42;nan
61769;BME280;47669;48.712;9.016;2023-02-05T06:38:03;98344.34;;;-0.35;nan
61769;BME280;47669;48.712;9.016;2023-02-05T06:40:29;98342.38;;;-0.32;nan
61769;BME280;47669;48.712;9.016;2023-02-05T06:42:54;98339.56;;;-0.29;nan
61769;BME280;47669;48.712;9.016;2023-02-05T06:45:20;98338.63;;;-0.28;nan
61769;BME280;47669;48.712;9.016;2023-02-05T06:47:45;98340.16;;;-0.12;nan
61769;BME280;47669;48.712;9.016;2023-02-05T06:50:11;98350.75;;;-0.28;nan
61769;BME280;47669;48.712;9.016;2023-02-05T06:52:37;98350.66;;;-0.27;nan
61769;BME280;47669;48.712;9.016;2023-02-05T06:55:03;98351.84;;;-0.20;nan
61769;BME280;47669;48.712;9.016;2023-02-05T06:57:28;98347.00;;;-0.11;nan
61769;BME280;47669;48.712;9.016;2023-02-05T06:59:56;98354.94;;;-0.02;nan
61769;BME280;47669;48.712;9.016;2023-02-05T07:02:21;98360.75;;;0.02;nan
61769;BME280;47669;48.712;9.016;2023-02-05T07:04:46;98353.03;;;0.13;nan
61769;BME280;47669;48.712;9.016;2023-02-05T07:07:11;98343.53;;;0.25;nan
61769;BME280;47669;48.712;9.016;2023-02-05T07:09:37;98350.75;;;0.22;nan
61769;BME280;47669;48.712;9.016;2023-02-05T07:12:03;98356.63;;;0.24;nan
61769;BME280;47669;48.712;9.016;2023-02-05T07:14:28;98359.88;;;0.14;nan
61769;BME280;47669;48.712;9.016;2023-02-05T07:16:55;98359.25;;;0.11;nan
61769;BME280;47669;48.712;9.016;2023-02-05T07:19:20;98363.00;;;0.07;nan
61769;BME280;47669;48.712;9.016;2023-02-05T07:21:46;98364.63;;;0.08;nan
61769;BME280;47669;48.712;9.016;2023-02-05T07:24:11;98363.28;;;0.15;nan
61769;BME280;47669;48.712;9.016;2023-02-05T07:26:36;98362.34;;;0.16;nan
61769;BME280;47669;48.712;9.016;2023-02-05T07:29:03;98366.03;;;0.25;nan
61769;BME280;47669;48.712;9.016;2023-02-05T07:31:28;98355.38;;;0.29;nan
61769;BME280;47669;48.712;9.016;2023-02-05T07:33:54;98357.78;;;0.19;nan
61769;BME280;47669;48.712;9.016;2023-02-05T07:36:19;98351.75;;;0.19;nan
61769;BME280;47669;48.712;9.016;2023-02-05T07:38:45;98349.28;;;0.17;nan
61769;BME280;47669;48.712;9.016;2023-02-05T07:41:12;98345.31;;;0.25;nan
61769;BME280;47669;48.712;9.016;2023-02-05T07:43:38;98346.75;;;0.29;nan
61769;BME280;47669;48.712;9.016;2023-02-05T07:46:06;98341.91;;;0.48;nan
61769;BME280;47669;48.712;9.016;2023-02-05T07:48:33;98333.97;;;0.38;nan
61769;BME280;47669;48.712;9.016;2023-02-05T07:50:59;98333.19;;;0.49;nan
61769;BME280;47669;48.712;9.016;2023-02-05T07:53:24;98324.16;;;0.55;nan
61769;BME280;47669;48.712;9.016;2023-02-05T07:55:50;98322.06;;;0.71;nan
61769;BME280;47669;48.712;9.016;2023-02-05T07:58:15;98314.03;;;0.63;nan
61769;BME280;47669;48.712;9.016;2023-02-05T08:00:41;98313.41;;;0.95;nan
61769;BME280;47669;48.712;9.016;2023-02-05T08:03:06;98315.06;;;0.85;nan
61769;BME280;47669;48.712;9.016;2023-02-05T08:05:32;98304.19;;;0.79;nan
61769;BME280;47669;48.712;9.016;2023-02-05T08:07:57;98314.13;;;0.97;nan
61769;BME280;47669;48.712;9.016;2023-02-05T08:10:22;98312.34;;;0.86;nan
61769;BME280;47669;48.712;9.016;2023-02-05T08:12:48;98308.00;;;0.98;nan
61769;BME280;47669;48.712;9.016;2023-02-05T08:15:14;98298.09;;;1.03;nan
61769;BME280;47669;48.712;9.016;2023-02-05T08:17:39;98303.84;;;0.84;nan
61769;BME280;47669;48.712;9.016;2023-02-05T08:20:05;98301.66;;;1.13;nan
61769;BME280;47669;48.712;9.016;2023-02-05T08:22:36;98298.69;;;1.07;nan
61769;BME280;47669;48.712;9.016;2023-02-05T08:25:03;98310.22;;;0.91;nan
61769;BME280;47669;48.712;9.016;2023-02-05T08:27:31;98315.31;;;0.93;nan
61769;BME280;47669;48.712;9.016;2023-02-05T08:29:56;98314.84;;;0.99;nan
61769;BME280;47669;48.712;9.016;2023-02-05T08:32:21;98320.03;;;1.10;nan
61769;BME280;47669;48.712;9.016;2023-02-05T08:34:46;98309.59;;;1.23;nan
61769;BME280;47669;48.712;9.016;2023-02-05T08:37:12;98296.97;;;1.52;nan
61769;BME280;47669;48.712;9.016;2023-02-05T08:39:37;98289.50;;;1.48;nan
61769;BME280;47669;48.712;9.016;2023-02-05T08:42:02;98294.00;;;1.23;nan
61769;BME280;47669;48.712;9.016;2023-02-05T08:44:28;98292.13;;;1.25;nan
61769;BME280;47669;48.712;9.016;2023-02-05T08:46:53;98298.94;;;1.26;nan
61769;BME280;47669;48.712;9.016;2023-02-05T08:49:19;98287.75;;;1.60;nan
61769;BME280;47669;48.712;9.016;2023-02-05T08:51:44;98288.13;;;1.32;nan
61769;BME280;47669;48.712;9.016;2023-02-05T08:54:10;98284.47;;;1.35;nan
61769;BME280;47669;48.712;9.016;2023-02-05T08:56:38;98280.78;;;1.37;nan
61769;BME280;47669;48.712;9.016;2023-02-05T08:59:04;98274.06;;;1.57;nan
61769;BME280;47669;48.712;9.016;2023-02-05T09:01:30;98268.41;;;1.64;nan
61769;BME280;47669;48.712;9.016;2023-02-05T09:03:55;98265.44;;;1.57;nan
61769;BME280;47669;48.712;9.016;2023-02-05T09:06:21;98251.53;;;1.47;nan
61769;BME280;47669;48.712;9.016;2023-02-05T09:08:47;98243.59;;;1.71;nan
61769;BME280;47669;48.712;9.016;2023-02-05T09:11:12;98252.13;;;1.62;nan
61769;BME280;47669;48.712;9.016;2023-02-05T09:13:38;98256.81;;;1.68;nan
61769;BME280;47669;48.712;9.016;2023-02-05T09:16:04;98255.41;;;1.64;nan
61769;BME280;47669;48.712;9.016;2023-02-05T09:18:29;98250.56;;;1.48;nan
61769;BME280;47669;48.712;9.016;2023-02-05T09:20:55;98254.84;;;1.49;nan
61769;BME280;47669;48.712;9.016;2023-02-05T09:23:21;98257.91;;;1.54;nan
61769;BME280;47669;48.712;9.016;2023-02-05T09:25:46;98250.84;;;1.33;nan
61769;BME280;47669;48.712;9.016;2023-02-05T09:28:13;98256.25;;;1.64;nan
61769;BME280;47669;48.712;9.016;2023-02-05T09:30:41;98244.66;;;1.80;nan
61769;BME280;47669;48.712;9.016;2023-02-05T09:33:06;98240.25;;;1.80;nan
61769;BME280;47669;48.712;9.016;2023-02-05T09:35:33;98240.56;;;1.54;nan
61769;BME280;47669;48.712;9.016;2023-02-05T09:37:59;98238.88;;;1.65;nan
61769;BME280;47669;48.712;9.016;2023-02-05T09:40:29;98239.47;;;1.68;nan
61769;BME280;47669;48.712;9.016;2023-02-05T09:43:04;98237.38;;;1.51;nan
61769;BME280;47669;48.712;9.016;2023-02-05T09:45:39;98232.97;;;1.74;nan
61769;BME280;47669;48.712;9.016;2023-02-05T09:50:54;98230.38;;;1.63;nan
61769;BME280;47669;48.712;9.016;2023-02-05T09:53:21;98227.56;;;1.66;nan
61769;BME280;47669;48.712;9.016;2023-02-05T09:55:47;98239.25;;;1.71;nan
61769;BME280;47669;48.712;9.016;2023-02-05T09:58:16;98227.78;;;1.74;nan
61769;BME280;47669;48.712;9.016;2023-02-05T10:06:19;98217.34;;;1.85;nan
61769;BME280;47669;48.712;9.016;2023-02-05T10:09:13;98216.69;;;2.04;nan
61769;BME280;47669;48.712;9.016;2023-02-05T10:12:04;98215.78;;;1.94;nan
61769;BME280;47669;48.712;9.016;2023-02-05T10:17:31;98218.97;;;1.97;nan
61769;BME280;47669;48.712;9.016;2023-02-05T10:20:22;98215.88;;;2.04;nan
61769;BME280;47669;48.712;9.016;2023-02-05T10:25:59;98207.56;;;2.10;nan
61769;BME280;47669;48.712;9.016;2023-02-05T10:34:58;98199.41;;;2.14;nan
61769;BME280;47669;48.712;9.016;2023-02-05T10:37:45;98195.75;;;2.17;nan
61769;BME280;47669;48.712;9.016;2023-02-05T10:40:14;98196.81;;;2.14;nan
61769;BME280;47669;48.712;9.016;2023-02-05T10:42:50;98176.09;;;2.24;nan
61769;BME280;47669;48.712;9.016;2023-02-05T10:45:24;98173.94;;;2.29;nan
61769;BME280;47669;48.712;9.016;2023-02-05T10:48:13;98176.41;;;2.31;nan
61769;BME280;47669;48.712;9.016;2023-02-05T10:50:52;98167.75;;;2.42;nan
61769;BME280;47669;48.712;9.016;2023-02-05T10:53:22;98157.34;;;2.21;nan
61769;BME280;47669;48.712;9.016;2023-02-05T10:55:49;98170.75;;;2.47;nan
61769;BME280;47669;48.712;9.016;2023-02-05T11:01:06;98175.25;;;2.66;nan
61769;BME280;47669;48.712;9.016;2023-02-05T11:03:35;98172.13;;;2.72;nan
61769;BME280;47669;48.712;9.016;2023-02-05T11:06:03;98162.91;;;2.58;nan
61769;BME280;47669;48.712;9.016;2023-02-05T11:08:36;98166.81;;;2.73;nan
61769;BME280;47669;48.712;9.016;2023-02-05T11:11:03;98169.75;;;2.90;nan
61769;BME280;47669;48.712;9.016;2023-02-05T11:13:30;98164.09;;;2.54;nan
61769;BME280;47669;48.712;9.016;2023-02-05T11:15:58;98157.06;;;2.66;nan
61769;BME280;47669;48.712;9.016;2023-02-05T11:18:45;98160.88;;;2.62;nan
61769;BME280;47669;48.712;9.016;2023-02-05T11:21:18;98156.00;;;2.47;nan
61769;BME280;47669;48.712;9.016;2023-02-05T11:23:54;98159.19;;;2.61;nan
61769;BME280;47669;48.712;9.016;2023-02-05T11:26:22;98148.31;;;2.67;nan
61769;BME280;47669;48.712;9.016;2023-02-05T11:28:47;98146.81;;;2.74;nan
61769;BME280;47669;48.712;9.016;2023-02-05T11:31:32;98132.13;;;2.63;nan
61769;BME280;47669;48.712;9.016;2023-02-05T11:36:34;98116.88;;;2.80;nan
61769;BME280;47669;48.712;9.016;2023-02-05T11:38:59;98121.56;;;2.95;nan
61769;BME280;47669;48.712;9.016;2023-02-05T11:41:31;98121.25;;;2.79;nan
61769;BME280;47669;48.712;9.016;2023-02-05T11:44:00;98120.47;;;2.88;nan
61769;BME280;47669;48.712;9.016;2023-02-05T11:46:28;98116.56;;;3.04;nan
61769;BME280;47669;48.712;9.016;2023-02-05T11:49:00;98123.53;;;3.13;nan
61769;BME280;47669;48.712;9.016;2023-02-05T11:51:43;98113.31;;;3.21;nan
61769;BME280;47669;48.712;9.016;2023-02-05T11:56:41;98105.09;;;2.85;nan
61769;BME280;47669;48.712;9.016;2023-02-05T11:59:20;98088.16;;;2.91;nan
61769;BME280;47669;48.712;9.016;2023-02-05T12:01:46;98086.91;;;2.85;nan
61769;BME280;47669;48.712;9.016;2023-02-05T12:06:40;98086.81;;;2.96;nan
61769;BME280;47669;48.712;9.016;2023-02-05T12:09:09;98093.50;;;2.99;nan
61769;BME280;47669;48.712;9.016;2023-02-05T12:14:41;98087.09;;;3.03;nan
61769;BME280;47669;48.712;9.016;2023-02-05T12:17:41;98088.94;;;3.32;nan
61769;BME280;47669;48.712;9.016;2023-02-05T12:23:01;98069.88;;;3.31;nan
61769;BME280;47669;48.712;9.016;2023-02-05T12:25:41;98074.00;;;3.34;nan
61769;BME280;47669;48.712;9.016;2023-02-05T12:31:28;98071.63;;;3.02;nan
61769;BME280;47669;48.712;9.016;2023-02-05T12:34:08;98086.97;;;3.14;nan
61769;BME280;47669;48.712;9.016;2023-02-05T12:36:45;98084.63;;;3.02;nan
61769;BME280;47669;48.712;9.016;2023-02-05T12:42:09;98081.34;;;3.09;nan
61769;BME280;47669;48.712;9.016;2023-02-05T12:58:29;98062.25;;;2.49;nan
61769;BME280;47669;48.712;9.016;2023-02-05T13:00:59;98059.28;;;2.53;nan
61769;BME280;47669;48.712;9.016;2023-02-05T13:03:34;98052.16;;;2.55;nan
61769;BME280;47669;48.712;9.016;2023-02-05T13:06:05;98055.78;;;2.43;nan
61769;BME280;47669;48.712;9.016;2023-02-05T13:08:44;98049.31;;;2.68;nan
61769;BME280;47669;48.712;9.016;2023-02-05T13:14:05;98062.88;;;2.72;nan
61769;BME280;47669;48.712;9.016;2023-02-05T13:16:54;98053.47;;;2.71;nan
61769;BME280;47669;48.712;9.016;2023-02-05T13:19:25;98067.56;;;2.78;nan
61769;BME280;47669;48.712;9.016;2023-02-05T13:21:55;98053.78;;;2.87;nan
61769;BME280;47669;48.712;9.016;2023-02-05T13:24:53;98056.19;;;2.69;nan
61769;BME280;47669;48.712;9.016;2023-02-05T13:27:42;98054.19;;;2.92;nan
61769;BME280;47669;48.712;9.016;2023-02-05T13:30:45;98061.91;;;2.63;nan
61769;BME280;47669;48.712;9.016;2023-02-05T13:33:14;98064.84;;;2.49;nan
61769;BME280;47669;48.712;9.016;2023-02-05T13:39:24;98063.50;;;2.54;nan
61769;BME280;47669;48.712;9.016;2023-02-05T13:42:18;98068.78;;;2.43;nan
61769;BME280;47669;48.712;9.016;2023-02-05T13:48:10;98065.28;;;2.02;nan
61769;BME280;47669;48.712;9.016;2023-02-05T13:57:56;98068.16;;;1.78;nan
61769;BME280;47669;48.712;9.016;2023-02-05T13:59:37;98063.81;;;1.67;nan
61769;BME280;47669;48.712;9.016;2023-02-05T14:02:03;98073.16;;;1.70;nan
61769;BME280;47669;48.712;9.016;2023-02-05T14:04:45;98073.00;;;1.50;nan
61769;BME280;47669;48.712;9.016;2023-02-05T14:07:25;98076.88;;;1.56;nan
61769;BME280;47669;48.712;9.016;2023-02-05T14:09:59;98074.06;;;1.48;nan
61769;BME280;47669;48.712;9.016;2023-02-05T14:12:29;98069.97;;;1.34;nan
61769;BME280;47669;48.712;9.016;2023-02-05T14:22:53;98065.88;;;1.20;nan
61769;BME280;47669;48.712;9.016;2023-02-05T14:31:00;98059.44;;;1.03;nan
61769;BME280;47669;48.712;9.016;2023-02-05T14:36:24;98055.63;;;1.18;nan
61769;BME280;47669;48.712;9.016;2023-02-05T14:41:24;98053.91;;;1.08;nan
61769;BME280;47669;48.712;9.016;2023-02-05T14:47:03;98062.09;;;1.24;nan
61769;BME280;47669;48.712;9.016;2023-02-05T14:52:00;98056.25;;;1.11;nan
61769;BME280;47669;48.712;9.016;2023-02-05T14:54:29;98057.41;;;1.18;nan
61769;BME280;47669;48.712;9.016;2023-02-05T14:59:40;98065.50;;;0.92;nan
61769;BME280;47669;48.712;9.016;2023-02-05T15:07:52;98061.88;;;1.27;nan
61769;BME280;47669;48.712;9.016;2023-02-05T15:10:28;98063.19;;;1.22;nan
61769;BME280;47669;48.712;9.016;2023-02-05T15:13:12;98068.31;;;1.44;nan
61769;BME280;47669;48.712;9.016;2023-02-05T15:15:38;98067.22;;;1.03;nan
61769;BME280;47669;48.712;9.016;2023-02-05T15:18:19;98074.94;;;0.82;nan
61769;BME280;47669;48.712;9.016;2023-02-05T15:20:47;98082.34;;;0.98;nan
61769;BME280;47669;48.712;9.016;2023-02-05T15:26:02;98072.28;;;1.05;nan
61769;BME280;47669;48.712;9.016;2023-02-05T15:28:32;98076.34;;;0.97;nan
61769;BME280;47669;48.712;9.016;2023-02-05T15:31:30;98071.38;;;0.94;nan
61769;BME280;47669;48.712;9.016;2023-02-05T15:34:36;98069.78;;;1.14;nan
61769;BME280;47669;48.712;9.016;2023-02-05T15:37:10;98070.72;;;1.25;nan
61769;BME280;47669;48.712;9.016;2023-02-05T15:39:49;98072.16;;;1.50;nan